Independence — WSID — position and weather

sailwx.info

Track history (hours):
 
Tides and Currents Weather Stations Pressure Air Temp Water Temp Dewpoint Dewpoint Depression Visibility Wind Speed Wind Dir Waves Ship Positions

Independence

Owner: SEA-Vista Newbuild I LLC, Fort Lauderdale, FL. More information available from US FCC via Universal Licensing System and Coast Guard Vessel Documentation Center.

Last reported at 2017-Nov-18 05:07 UTC. Time now 2017-Nov-24 05:45 UTC.
Position N 29°22' W 094°48'.

Length 186 m; draft 10.5 m.

Type: Tanker. MMSI: 338188000.

Date/timePositionNaut miles runAvg speedWind from/ knotsBaromVisibWave heightAir tempDewpointWater temp
2017-Nov-18 05:07N 29°22' W 094°48'212.4
2017-Nov-18 04:58N 29°24' W 094°49'511.5
2017-Nov-18 04:30N 29°29' W 094°51'611.4
2017-Nov-18 04:00N 29°33' W 094°55'510.9
2017-Nov-18 03:30N 29°38' W 094°58'4 8.4
2017-Nov-18 03:00N 29°42' W 095°00'3 6.5
2017-Nov-18 02:30N 29°44' W 095°03'3 4.9
2017-Nov-18 01:58N 29°45' W 095°06'3 5.8
2017-Nov-18 01:30N 29°44' W 095°09'3 5.1
2017-Nov-18 00:56N 29°44' W 095°12'0 0.0
2017-Nov-17 15:06N 29°45' W 095°12'0 0.0
2017-Nov-17 14:54N 29°45' W 095°12'0 0.0
2017-Nov-17 14:15N 29°45' W 095°12'0 0.0
2017-Nov-17 13:48N 29°45' W 095°12'0 0.0
2017-Nov-17 13:12N 29°45' W 095°12'0 0.0
2017-Nov-17 12:48N 29°45' W 095°12'0 0.0
2017-Nov-17 12:30N 29°45' W 095°12'0 0.0
2017-Nov-17 12:00N 29°45' W 095°12'0 0.0
2017-Nov-17 11:30N 29°45' W 095°12'0 0.0
2017-Nov-17 10:57N 29°45' W 095°12'0 0.0
2017-Nov-17 10:27N 29°45' W 095°12'0 0.0
2017-Nov-17 10:00N 29°45' W 095°12'0 0.0
2017-Nov-17 08:51N 29°45' W 095°12'0 0.0
2017-Nov-17 08:30N 29°45' W 095°12'0 0.0
2017-Nov-17 08:00N 29°45' W 095°12'0 0.0
2017-Nov-17 07:30N 29°45' W 095°12'0 0.0
2017-Nov-17 06:36N 29°45' W 095°12'0 0.0
2017-Nov-17 06:21N 29°45' W 095°12'0 0.0
2017-Nov-17 05:57N 29°45' W 095°12'0 0.0
2017-Nov-17 05:27N 29°45' W 095°12'0 0.0
2017-Nov-17 03:48N 29°45' W 095°12'0 0.0
2017-Nov-17 03:30N 29°45' W 095°12'0 0.0
2017-Nov-17 01:27N 29°45' W 095°12'0 0.0
2017-Nov-17 01:00N 29°45' W 095°12'0 0.0
2017-Nov-17 00:21N 29°45' W 095°12'0 0.0
2017-Nov-16 23:54N 29°45' W 095°12'0 0.0
2017-Nov-16 23:30N 29°45' W 095°12'0 0.0
2017-Nov-16 23:00N 29°45' W 095°12'0 0.0
2017-Nov-16 22:30N 29°45' W 095°12'0 0.0
2017-Nov-16 21:57N 29°45' W 095°12'0 0.0
2017-Nov-16 21:30N 29°45' W 095°12'0 0.0
2017-Nov-16 20:57N 29°45' W 095°12'0 0.0
2017-Nov-16 19:42N 29°45' W 095°12'0 0.0
2017-Nov-16 19:30N 29°45' W 095°12'0 0.0
2017-Nov-16 18:45N 29°45' W 095°12'0 0.0
2017-Nov-16 18:24N 29°45' W 095°12'0 0.0
2017-Nov-16 17:54N 29°45' W 095°12'0 0.0
2017-Nov-16 15:30N 29°45' W 095°12'0 0.0
2017-Nov-16 14:51N 29°45' W 095°12'0 0.0
2017-Nov-16 13:30N 29°45' W 095°12'0 0.0
2017-Nov-16 12:36N 29°45' W 095°12'0 0.0
2017-Nov-16 12:24N 29°45' W 095°12'0 0.0
2017-Nov-16 11:54N 29°45' W 095°12'0 0.0
2017-Nov-16 11:24N 29°45' W 095°12'0 0.0
2017-Nov-16 11:00N 29°45' W 095°12'0 0.0
2017-Nov-16 10:30N 29°45' W 095°12'0 0.0
2017-Nov-16 09:54N 29°45' W 095°12'0 0.0
2017-Nov-16 09:24N 29°45' W 095°12'0 1.0
2017-Nov-16 09:00N 29°45' W 095°12'3 5.4
2017-Nov-16 08:30N 29°44' W 095°09'3 5.8
2017-Nov-16 08:00N 29°45' W 095°06'3 6.5
2017-Nov-16 07:30N 29°44' W 095°02'4 7.6
2017-Nov-16 07:00N 29°41' W 094°59'612.1
2017-Nov-16 06:30N 29°36' W 094°57'613.0
2017-Nov-16 06:00N 29°30' W 094°52'713.1
2017-Nov-16 05:30N 29°24' W 094°49'5 9.5
2017-Nov-16 04:56N 29°21' W 094°44'0 0.0
2017-Nov-15 12:04N 29°21' W 094°44'0 0.0
2017-Nov-15 11:52N 29°21' W 094°44'  
2017-Nov-12 11:48N 25°13' W 080°06'412.6
2017-Nov-12 11:29N 25°17' W 080°04'612.5
2017-Nov-12 11:00N 25°22' W 080°02'612.4
2017-Nov-12 10:30N 25°28' W 079°60'612.0
2017-Nov-12 10:00N 25°34' W 079°59'510.9
2017-Nov-12 09:30N 25°39' W 079°58'612.0
2017-Nov-12 09:00N 25°45' W 079°57'611.7
2017-Nov-12 08:30N 25°51' W 079°58'612.4
2017-Nov-12 08:00N 25°57' W 080°01'713.7
2017-Nov-12 07:30N 26°03' W 080°04'4 7.5
2017-Nov-12 07:00N 26°06' W 080°07'0 0.2
2017-Nov-12 06:20N 26°06' W 080°07'0 0.0
2017-Nov-12 05:50N 26°06' W 080°07'0 0.0
2017-Nov-12 05:23N 26°06' W 080°07'0 0.0
2017-Nov-12 04:53N 26°06' W 080°07'0 0.0
2017-Nov-12 04:23N 26°06' W 080°07'0 0.0
2017-Nov-12 03:53N 26°06' W 080°07'0 0.0
2017-Nov-12 03:23N 26°06' W 080°07'0 0.0
2017-Nov-12 02:53N 26°06' W 080°07'0 0.0
2017-Nov-12 02:26N 26°06' W 080°07'0 0.0
2017-Nov-12 01:56N 26°06' W 080°07'0 0.0
2017-Nov-12 01:26N 26°06' W 080°07'0 0.0
2017-Nov-12 00:56N 26°06' W 080°07'0 0.0
2017-Nov-12 00:26N 26°06' W 080°07'0 0.0
2017-Nov-11 23:59N 26°06' W 080°07'0 0.0
2017-Nov-11 23:29N 26°06' W 080°07'0 0.0
2017-Nov-11 22:59N 26°06' W 080°07'0 0.0
2017-Nov-11 22:29N 26°06' W 080°07'0 0.0
2017-Nov-11 21:59N 26°06' W 080°07'0 0.0
2017-Nov-11 21:29N 26°06' W 080°07'0 0.0
2017-Nov-11 20:59N 26°06' W 080°07'0 0.0
2017-Nov-11 20:29N 26°06' W 080°07'0 0.0
2017-Nov-11 19:59N 26°06' W 080°07'0 0.0
2017-Nov-11 19:17N 26°06' W 080°07'0 0.0
2017-Nov-11 18:59N 26°06' W 080°07'0 0.0
2017-Nov-11 18:29N 26°06' W 080°07'0 0.0
2017-Nov-11 17:50N 26°06' W 080°07'0 0.0
2017-Nov-11 17:29N 26°06' W 080°07'0 0.0
2017-Nov-11 16:50N 26°06' W 080°07'0 0.0
2017-Nov-11 16:20N 26°06' W 080°07'0 0.0
2017-Nov-11 15:50N 26°06' W 080°07'0 0.0
2017-Nov-11 15:23N 26°06' W 080°07'0 0.0
2017-Nov-11 14:53N 26°06' W 080°07'0 0.0
2017-Nov-11 14:23N 26°06' W 080°07'0 0.0
2017-Nov-11 13:50N 26°06' W 080°07'0 0.0
2017-Nov-11 13:23N 26°06' W 080°07'0 0.0
2017-Nov-11 12:53N 26°06' W 080°07'0 0.0
2017-Nov-11 12:26N 26°06' W 080°07'0 0.0
2017-Nov-11 11:56N 26°06' W 080°07'0 0.0
2017-Nov-11 11:26N 26°06' W 080°07'0 0.0
2017-Nov-11 10:56N 26°06' W 080°07'0 0.0
2017-Nov-11 10:26N 26°06' W 080°07'0 0.0
2017-Nov-11 09:59N 26°06' W 080°07'0 0.0
2017-Nov-11 09:29N 26°06' W 080°07'0 0.0
2017-Nov-11 08:56N 26°06' W 080°07'0 0.0
2017-Nov-11 08:29N 26°06' W 080°07'0 0.0
2017-Nov-11 07:59N 26°06' W 080°07'0 0.0
2017-Nov-11 07:29N 26°06' W 080°07'0 0.4
2017-Nov-11 07:00N 26°06' W 080°07'3 6.5
2017-Nov-11 06:30N 26°05' W 080°04'4 8.9
2017-Nov-11 06:00N 26°01' W 080°01'5 9.1
2017-Nov-11 05:30N 25°57' W 079°60'714.9
2017-Nov-11 05:01N 25°50' W 079°57'816.2
2017-Nov-11 04:31N 25°42' W 079°55'816.5
2017-Nov-11 04:01N 25°34' W 079°54'816.9
2017-Nov-11 03:30N 25°25' W 079°57'816.6
2017-Nov-11 03:00N 25°17' W 079°59'1116.2
2017-Nov-11 02:21N 25°08' W 080°04'616.6
2017-Nov-11 01:59N 25°03' W 080°08'816.4
2017-Nov-11 01:29N 24°56' W 080°13'816.6
2017-Nov-11 00:59N 24°49' W 080°18'916.4
2017-Nov-11 00:25N 24°42' W 080°24'215 8.3
2017-Nov-09 22:27N 27°36' W 082°44'612.3
2017-Nov-09 22:00N 27°38' W 082°38'612.1
2017-Nov-09 21:30N 27°42' W 082°33'611.9
2017-Nov-09 21:00N 27°47' W 082°31'510.9
2017-Nov-09 20:30N 27°51' W 082°27'4 7.4
2017-Nov-09 20:00N 27°55' W 082°27'0 0.2
2017-Nov-09 19:30N 27°55' W 082°27'0 0.0
2017-Nov-09 18:56N 27°55' W 082°27'0 0.0
2017-Nov-09 18:29N 27°55' W 082°27'0 0.0
2017-Nov-09 17:59N 27°55' W 082°27'0 0.0
2017-Nov-09 17:26N 27°55' W 082°27'0 0.0
2017-Nov-09 16:59N 27°55' W 082°27'0 0.0
2017-Nov-09 16:29N 27°55' W 082°27'0 0.0
2017-Nov-09 15:59N 27°55' W 082°27'0 0.0
2017-Nov-09 15:29N 27°55' W 082°27'0 0.0
2017-Nov-09 14:59N 27°55' W 082°27'0 0.0
2017-Nov-09 14:29N 27°55' W 082°27'0 0.0
2017-Nov-09 13:59N 27°55' W 082°27'0 0.0
2017-Nov-09 13:29N 27°55' W 082°27'0 0.0
2017-Nov-09 12:59N 27°55' W 082°27'0 0.0
2017-Nov-09 12:29N 27°55' W 082°27'0 0.0
2017-Nov-09 11:59N 27°55' W 082°27'0 0.0
2017-Nov-09 11:29N 27°55' W 082°27'0 0.0
2017-Nov-09 10:59N 27°55' W 082°27'0 0.0
2017-Nov-09 10:29N 27°55' W 082°27'0 0.0
2017-Nov-09 09:59N 27°55' W 082°27'0 0.0
2017-Nov-09 09:26N 27°55' W 082°27'0 0.0
2017-Nov-09 08:59N 27°55' W 082°27'0 0.0
2017-Nov-09 08:29N 27°55' W 082°27'0 0.0
2017-Nov-09 07:59N 27°55' W 082°27'0 0.0
2017-Nov-09 07:29N 27°55' W 082°27'0 0.0
2017-Nov-09 06:59N 27°55' W 082°27'0 0.0
2017-Nov-09 06:29N 27°55' W 082°27'0 0.0
2017-Nov-09 05:59N 27°55' W 082°27'0 0.0
2017-Nov-09 05:29N 27°55' W 082°27'0 0.0
2017-Nov-09 04:59N 27°55' W 082°27'0 0.0
2017-Nov-09 04:29N 27°55' W 082°27'0 0.0
2017-Nov-09 03:59N 27°55' W 082°27'0 0.0
2017-Nov-09 03:29N 27°55' W 082°27'0 0.0
2017-Nov-09 02:59N 27°55' W 082°27'0 0.0
2017-Nov-09 02:29N 27°55' W 082°27'0 0.0
2017-Nov-09 01:59N 27°55' W 082°27'0 0.0
2017-Nov-09 01:29N 27°55' W 082°27'0 0.0
2017-Nov-09 00:59N 27°55' W 082°27'0 0.0
2017-Nov-09 00:29N 27°55' W 082°27'0 0.0
2017-Nov-08 23:59N 27°55' W 082°27'0 0.0
2017-Nov-08 23:29N 27°55' W 082°27'0 0.0
2017-Nov-08 22:59N 27°55' W 082°27'0 0.0
2017-Nov-08 22:29N 27°55' W 082°27'0 0.0
2017-Nov-08 21:59N 27°55' W 082°27'0 0.0
2017-Nov-08 21:29N 27°55' W 082°27'0 0.0
2017-Nov-08 20:59N 27°55' W 082°27'0 0.0
2017-Nov-08 20:29N 27°55' W 082°27'0 0.0
2017-Nov-08 19:59N 27°55' W 082°27'1 2.9
2017-Nov-08 19:30N 27°54' W 082°26'510.1
2017-Nov-08 19:00N 27°49' W 082°27'510.7
2017-Nov-08 18:30N 27°45' W 082°31'611.8
2017-Nov-08 17:59N 27°40' W 082°36'611.8
2017-Nov-08 17:30N 27°37' W 082°41'19 2.3
2017-Nov-08 09:14N 27°37' W 083°02'0 0.0
2017-Nov-08 08:14N 27°37' W 083°02'0 0.0
2017-Nov-08 07:56N 27°37' W 083°02'0 0.0
2017-Nov-08 05:44N 27°37' W 083°02'0 0.0
2017-Nov-08 05:29N 27°37' W 083°02'  
Track history (hours):
 
Tides and Currents Weather Stations Pressure Air Temp Water Temp Dewpoint Dewpoint Depression Visibility Wind Speed Wind Dir Waves Ship Positions

Independence

Owner: SEA-Vista Newbuild I LLC, Fort Lauderdale, FL. More information available from US FCC via Universal Licensing System and Coast Guard Vessel Documentation Center.

Last reported at 2017-Nov-18 05:07 UTC. Time now 2017-Nov-24 05:45 UTC.
Position N 29°22' W 094°48'.

Length 186 m; draft 10.5 m.

Type: Tanker. MMSI: 338188000.

Date/timePositionNaut miles runAvg speedWind from/ knotsBaromVisibWave heightAir tempDewpointWater temp
2017-Nov-18 05:07N 29°22' W 094°48'212.4
2017-Nov-18 04:58N 29°24' W 094°49'511.5
2017-Nov-18 04:30N 29°29' W 094°51'611.4
2017-Nov-18 04:00N 29°33' W 094°55'510.9
2017-Nov-18 03:30N 29°38' W 094°58'4 8.4
2017-Nov-18 03:00N 29°42' W 095°00'3 6.5
2017-Nov-18 02:30N 29°44' W 095°03'3 4.9
2017-Nov-18 01:58N 29°45' W 095°06'3 5.8
2017-Nov-18 01:30N 29°44' W 095°09'3 5.1
2017-Nov-18 00:56N 29°44' W 095°12'0 0.0
2017-Nov-17 15:06N 29°45' W 095°12'0 0.0
2017-Nov-17 14:54N 29°45' W 095°12'0 0.0
2017-Nov-17 14:15N 29°45' W 095°12'0 0.0
2017-Nov-17 13:48N 29°45' W 095°12'0 0.0
2017-Nov-17 13:12N 29°45' W 095°12'0 0.0
2017-Nov-17 12:48N 29°45' W 095°12'0 0.0
2017-Nov-17 12:30N 29°45' W 095°12'0 0.0
2017-Nov-17 12:00N 29°45' W 095°12'0 0.0
2017-Nov-17 11:30N 29°45' W 095°12'0 0.0
2017-Nov-17 10:57N 29°45' W 095°12'0 0.0
2017-Nov-17 10:27N 29°45' W 095°12'0 0.0
2017-Nov-17 10:00N 29°45' W 095°12'0 0.0
2017-Nov-17 08:51N 29°45' W 095°12'0 0.0
2017-Nov-17 08:30N 29°45' W 095°12'0 0.0
2017-Nov-17 08:00N 29°45' W 095°12'0 0.0
2017-Nov-17 07:30N 29°45' W 095°12'0 0.0
2017-Nov-17 06:36N 29°45' W 095°12'0 0.0
2017-Nov-17 06:21N 29°45' W 095°12'0 0.0
2017-Nov-17 05:57N 29°45' W 095°12'0 0.0
2017-Nov-17 05:27N 29°45' W 095°12'0 0.0
2017-Nov-17 03:48N 29°45' W 095°12'0 0.0
2017-Nov-17 03:30N 29°45' W 095°12'0 0.0
2017-Nov-17 01:27N 29°45' W 095°12'0 0.0
2017-Nov-17 01:00N 29°45' W 095°12'0 0.0
2017-Nov-17 00:21N 29°45' W 095°12'0 0.0
2017-Nov-16 23:54N 29°45' W 095°12'0 0.0
2017-Nov-16 23:30N 29°45' W 095°12'0 0.0
2017-Nov-16 23:00N 29°45' W 095°12'0 0.0
2017-Nov-16 22:30N 29°45' W 095°12'0 0.0
2017-Nov-16 21:57N 29°45' W 095°12'0 0.0
2017-Nov-16 21:30N 29°45' W 095°12'0 0.0
2017-Nov-16 20:57N 29°45' W 095°12'0 0.0
2017-Nov-16 19:42N 29°45' W 095°12'0 0.0
2017-Nov-16 19:30N 29°45' W 095°12'0 0.0
2017-Nov-16 18:45N 29°45' W 095°12'0 0.0
2017-Nov-16 18:24N 29°45' W 095°12'0 0.0
2017-Nov-16 17:54N 29°45' W 095°12'0 0.0
2017-Nov-16 15:30N 29°45' W 095°12'0 0.0
2017-Nov-16 14:51N 29°45' W 095°12'0 0.0
2017-Nov-16 13:30N 29°45' W 095°12'0 0.0
2017-Nov-16 12:36N 29°45' W 095°12'0 0.0
2017-Nov-16 12:24N 29°45' W 095°12'0 0.0
2017-Nov-16 11:54N 29°45' W 095°12'0 0.0
2017-Nov-16 11:24N 29°45' W 095°12'0 0.0
2017-Nov-16 11:00N 29°45' W 095°12'0 0.0
2017-Nov-16 10:30N 29°45' W 095°12'0 0.0
2017-Nov-16 09:54N 29°45' W 095°12'0 0.0
2017-Nov-16 09:24N 29°45' W 095°12'0 1.0
2017-Nov-16 09:00N 29°45' W 095°12'3 5.4
2017-Nov-16 08:30N 29°44' W 095°09'3 5.8
2017-Nov-16 08:00N 29°45' W 095°06'3 6.5
2017-Nov-16 07:30N 29°44' W 095°02'4 7.6
2017-Nov-16 07:00N 29°41' W 094°59'612.1
2017-Nov-16 06:30N 29°36' W 094°57'613.0
2017-Nov-16 06:00N 29°30' W 094°52'713.1
2017-Nov-16 05:30N 29°24' W 094°49'5 9.5
2017-Nov-16 04:56N 29°21' W 094°44'0 0.0
2017-Nov-15 12:04N 29°21' W 094°44'0 0.0
2017-Nov-15 11:52N 29°21' W 094°44'  
2017-Nov-12 11:48N 25°13' W 080°06'412.6
2017-Nov-12 11:29N 25°17' W 080°04'612.5
2017-Nov-12 11:00N 25°22' W 080°02'612.4
2017-Nov-12 10:30N 25°28' W 079°60'612.0
2017-Nov-12 10:00N 25°34' W 079°59'510.9
2017-Nov-12 09:30N 25°39' W 079°58'612.0
2017-Nov-12 09:00N 25°45' W 079°57'611.7
2017-Nov-12 08:30N 25°51' W 079°58'612.4
2017-Nov-12 08:00N 25°57' W 080°01'713.7
2017-Nov-12 07:30N 26°03' W 080°04'4 7.5
2017-Nov-12 07:00N 26°06' W 080°07'0 0.2
2017-Nov-12 06:20N 26°06' W 080°07'0 0.0
2017-Nov-12 05:50N 26°06' W 080°07'0 0.0
2017-Nov-12 05:23N 26°06' W 080°07'0 0.0
2017-Nov-12 04:53N 26°06' W 080°07'0 0.0
2017-Nov-12 04:23N 26°06' W 080°07'0 0.0
2017-Nov-12 03:53N 26°06' W 080°07'0 0.0
2017-Nov-12 03:23N 26°06' W 080°07'0 0.0
2017-Nov-12 02:53N 26°06' W 080°07'0 0.0
2017-Nov-12 02:26N 26°06' W 080°07'0 0.0
2017-Nov-12 01:56N 26°06' W 080°07'0 0.0
2017-Nov-12 01:26N 26°06' W 080°07'0 0.0
2017-Nov-12 00:56N 26°06' W 080°07'0 0.0
2017-Nov-12 00:26N 26°06' W 080°07'0 0.0
2017-Nov-11 23:59N 26°06' W 080°07'0 0.0
2017-Nov-11 23:29N 26°06' W 080°07'0 0.0
2017-Nov-11 22:59N 26°06' W 080°07'0 0.0
2017-Nov-11 22:29N 26°06' W 080°07'0 0.0
2017-Nov-11 21:59N 26°06' W 080°07'0 0.0
2017-Nov-11 21:29N 26°06' W 080°07'0 0.0
2017-Nov-11 20:59N 26°06' W 080°07'0 0.0
2017-Nov-11 20:29N 26°06' W 080°07'0 0.0
2017-Nov-11 19:59N 26°06' W 080°07'0 0.0
2017-Nov-11 19:17N 26°06' W 080°07'0 0.0
2017-Nov-11 18:59N 26°06' W 080°07'0 0.0
2017-Nov-11 18:29N 26°06' W 080°07'0 0.0
2017-Nov-11 17:50N 26°06' W 080°07'0 0.0
2017-Nov-11 17:29N 26°06' W 080°07'0 0.0
2017-Nov-11 16:50N 26°06' W 080°07'0 0.0
2017-Nov-11 16:20N 26°06' W 080°07'0 0.0
2017-Nov-11 15:50N 26°06' W 080°07'0 0.0
2017-Nov-11 15:23N 26°06' W 080°07'0 0.0
2017-Nov-11 14:53N 26°06' W 080°07'0 0.0
2017-Nov-11 14:23N 26°06' W 080°07'0 0.0
2017-Nov-11 13:50N 26°06' W 080°07'0 0.0
2017-Nov-11 13:23N 26°06' W 080°07'0 0.0
2017-Nov-11 12:53N 26°06' W 080°07'0 0.0
2017-Nov-11 12:26N 26°06' W 080°07'0 0.0
2017-Nov-11 11:56N 26°06' W 080°07'0 0.0
2017-Nov-11 11:26N 26°06' W 080°07'0 0.0
2017-Nov-11 10:56N 26°06' W 080°07'0 0.0
2017-Nov-11 10:26N 26°06' W 080°07'0 0.0
2017-Nov-11 09:59N 26°06' W 080°07'0 0.0
2017-Nov-11 09:29N 26°06' W 080°07'0 0.0
2017-Nov-11 08:56N 26°06' W 080°07'0 0.0
2017-Nov-11 08:29N 26°06' W 080°07'0 0.0
2017-Nov-11 07:59N 26°06' W 080°07'0 0.0
2017-Nov-11 07:29N 26°06' W 080°07'0 0.4
2017-Nov-11 07:00N 26°06' W 080°07'3 6.5
2017-Nov-11 06:30N 26°05' W 080°04'4 8.9
2017-Nov-11 06:00N 26°01' W 080°01'5 9.1
2017-Nov-11 05:30N 25°57' W 079°60'714.9
2017-Nov-11 05:01N 25°50' W 079°57'816.2
2017-Nov-11 04:31N 25°42' W 079°55'816.5
2017-Nov-11 04:01N 25°34' W 079°54'816.9
2017-Nov-11 03:30N 25°25' W 079°57'816.6
2017-Nov-11 03:00N 25°17' W 079°59'1116.2
2017-Nov-11 02:21N 25°08' W 080°04'616.6
2017-Nov-11 01:59N 25°03' W 080°08'816.4
2017-Nov-11 01:29N 24°56' W 080°13'816.6
2017-Nov-11 00:59N 24°49' W 080°18'916.4
2017-Nov-11 00:25N 24°42' W 080°24'215 8.3
2017-Nov-09 22:27N 27°36' W 082°44'612.3
2017-Nov-09 22:00N 27°38' W 082°38'612.1
2017-Nov-09 21:30N 27°42' W 082°33'611.9
2017-Nov-09 21:00N 27°47' W 082°31'510.9
2017-Nov-09 20:30N 27°51' W 082°27'4 7.4
2017-Nov-09 20:00N 27°55' W 082°27'0 0.2
2017-Nov-09 19:30N 27°55' W 082°27'0 0.0
2017-Nov-09 18:56N 27°55' W 082°27'0 0.0
2017-Nov-09 18:29N 27°55' W 082°27'0 0.0
2017-Nov-09 17:59N 27°55' W 082°27'0 0.0
2017-Nov-09 17:26N 27°55' W 082°27'0 0.0
2017-Nov-09 16:59N 27°55' W 082°27'0 0.0
2017-Nov-09 16:29N 27°55' W 082°27'0 0.0
2017-Nov-09 15:59N 27°55' W 082°27'0 0.0
2017-Nov-09 15:29N 27°55' W 082°27'0 0.0
2017-Nov-09 14:59N 27°55' W 082°27'0 0.0
2017-Nov-09 14:29N 27°55' W 082°27'0 0.0
2017-Nov-09 13:59N 27°55' W 082°27'0 0.0
2017-Nov-09 13:29N 27°55' W 082°27'0 0.0
2017-Nov-09 12:59N 27°55' W 082°27'0 0.0
2017-Nov-09 12:29N 27°55' W 082°27'0 0.0
2017-Nov-09 11:59N 27°55' W 082°27'0 0.0
2017-Nov-09 11:29N 27°55' W 082°27'0 0.0
2017-Nov-09 10:59N 27°55' W 082°27'0 0.0
2017-Nov-09 10:29N 27°55' W 082°27'0 0.0
2017-Nov-09 09:59N 27°55' W 082°27'0 0.0
2017-Nov-09 09:26N 27°55' W 082°27'0 0.0
2017-Nov-09 08:59N 27°55' W 082°27'0 0.0
2017-Nov-09 08:29N 27°55' W 082°27'0 0.0
2017-Nov-09 07:59N 27°55' W 082°27'0 0.0
2017-Nov-09 07:29N 27°55' W 082°27'0 0.0
2017-Nov-09 06:59N 27°55' W 082°27'0 0.0
2017-Nov-09 06:29N 27°55' W 082°27'0 0.0
2017-Nov-09 05:59N 27°55' W 082°27'0 0.0
2017-Nov-09 05:29N 27°55' W 082°27'0 0.0
2017-Nov-09 04:59N 27°55' W 082°27'0 0.0
2017-Nov-09 04:29N 27°55' W 082°27'0 0.0
2017-Nov-09 03:59N 27°55' W 082°27'0 0.0
2017-Nov-09 03:29N 27°55' W 082°27'0 0.0
2017-Nov-09 02:59N 27°55' W 082°27'0 0.0
2017-Nov-09 02:29N 27°55' W 082°27'0 0.0
2017-Nov-09 01:59N 27°55' W 082°27'0 0.0
2017-Nov-09 01:29N 27°55' W 082°27'0 0.0
2017-Nov-09 00:59N 27°55' W 082°27'0 0.0
2017-Nov-09 00:29N 27°55' W 082°27'0 0.0
2017-Nov-08 23:59N 27°55' W 082°27'0 0.0
2017-Nov-08 23:29N 27°55' W 082°27'0 0.0
2017-Nov-08 22:59N 27°55' W 082°27'0 0.0
2017-Nov-08 22:29N 27°55' W 082°27'0 0.0
2017-Nov-08 21:59N 27°55' W 082°27'0 0.0
2017-Nov-08 21:29N 27°55' W 082°27'0 0.0
2017-Nov-08 20:59N 27°55' W 082°27'0 0.0
2017-Nov-08 20:29N 27°55' W 082°27'0 0.0
2017-Nov-08 19:59N 27°55' W 082°27'1 2.9
2017-Nov-08 19:30N 27°54' W 082°26'510.1
2017-Nov-08 19:00N 27°49' W 082°27'510.7
2017-Nov-08 18:30N 27°45' W 082°31'611.8
2017-Nov-08 17:59N 27°40' W 082°36'611.8
2017-Nov-08 17:30N 27°37' W 082°41'19 2.3
2017-Nov-08 09:14N 27°37' W 083°02'0 0.0
2017-Nov-08 08:14N 27°37' W 083°02'0 0.0
2017-Nov-08 07:56N 27°37' W 083°02'0 0.0
2017-Nov-08 05:44N 27°37' W 083°02'0 0.0
2017-Nov-08 05:29N 27°37' W 083°02'  

Dump ship's entire track history